sensor_id;sensor_type;location;lat;lon;timestamp;pressure;altitude;pressure_sealevel;temperature
33267;BMP180;19638;49.080;11.896;2023-02-13T00:02:53;98222.00;;;3.50
33267;BMP180;19638;49.080;11.896;2023-02-13T00:06:56;98218.00;;;3.40
33267;BMP180;19638;49.080;11.896;2023-02-13T00:10:59;98215.00;;;3.40
33267;BMP180;19638;49.080;11.896;2023-02-13T00:15:02;98219.00;;;3.40
33267;BMP180;19638;49.080;11.896;2023-02-13T00:19:10;98217.00;;;3.40
33267;BMP180;19638;49.080;11.896;2023-02-13T00:23:16;98220.00;;;3.30
33267;BMP180;19638;49.080;11.896;2023-02-13T00:27:22;98214.00;;;3.20
33267;BMP180;19638;49.080;11.896;2023-02-13T00:31:27;98219.00;;;3.10
33267;BMP180;19638;49.080;11.896;2023-02-13T00:35:32;98222.00;;;3.00
33267;BMP180;19638;49.080;11.896;2023-02-13T00:39:35;98216.00;;;3.00
33267;BMP180;19638;49.080;11.896;2023-02-13T00:43:38;98222.00;;;2.90
33267;BMP180;19638;49.080;11.896;2023-02-13T00:47:42;98216.00;;;2.90
33267;BMP180;19638;49.080;11.896;2023-02-13T00:51:59;98217.00;;;2.80
33267;BMP180;19638;49.080;11.896;2023-02-13T00:56:05;98219.00;;;2.80
33267;BMP180;19638;49.080;11.896;2023-02-13T01:00:10;98217.00;;;2.80
33267;BMP180;19638;49.080;11.896;2023-02-13T01:04:17;98218.00;;;2.80
33267;BMP180;19638;49.080;11.896;2023-02-13T01:08:23;98219.00;;;2.80
33267;BMP180;19638;49.080;11.896;2023-02-13T01:12:29;98211.00;;;2.90
33267;BMP180;19638;49.080;11.896;2023-02-13T01:16:32;98215.00;;;2.90
33267;BMP180;19638;49.080;11.896;2023-02-13T01:20:35;98213.00;;;3.00
33267;BMP180;19638;49.080;11.896;2023-02-13T01:24:41;98206.00;;;3.00
33267;BMP180;19638;49.080;11.896;2023-02-13T01:28:50;98203.00;;;2.90
33267;BMP180;19638;49.080;11.896;2023-02-13T01:32:58;98203.00;;;3.00
33267;BMP180;19638;49.080;11.896;2023-02-13T01:37:01;98205.00;;;2.90
33267;BMP180;19638;49.080;11.896;2023-02-13T01:41:07;98205.00;;;2.90
33267;BMP180;19638;49.080;11.896;2023-02-13T01:45:23;98196.00;;;2.90
33267;BMP180;19638;49.080;11.896;2023-02-13T01:49:29;98193.00;;;2.90
33267;BMP180;19638;49.080;11.896;2023-02-13T01:53:42;98199.00;;;2.90
33267;BMP180;19638;49.080;11.896;2023-02-13T01:57:53;98192.00;;;2.80
33267;BMP180;19638;49.080;11.896;2023-02-13T02:01:59;98197.00;;;2.80
33267;BMP180;19638;49.080;11.896;2023-02-13T02:06:04;98200.00;;;2.80
33267;BMP180;19638;49.080;11.896;2023-02-13T02:10:13;98203.00;;;2.80
33267;BMP180;19638;49.080;11.896;2023-02-13T02:14:19;98191.00;;;2.70
33267;BMP180;19638;49.080;11.896;2023-02-13T02:18:23;98195.00;;;2.50
33267;BMP180;19638;49.080;11.896;2023-02-13T02:27:26;98175.00;;;2.10
33267;BMP180;19638;49.080;11.896;2023-02-13T02:31:58;98176.00;;;1.90
33267;BMP180;19638;49.080;11.896;2023-02-13T02:36:16;98172.00;;;1.80
33267;BMP180;19638;49.080;11.896;2023-02-13T02:40:32;98165.00;;;1.70
33267;BMP180;19638;49.080;11.896;2023-02-13T02:44:41;98167.00;;;1.60
33267;BMP180;19638;49.080;11.896;2023-02-13T02:48:54;98162.00;;;1.50
33267;BMP180;19638;49.080;11.896;2023-02-13T02:53:25;98170.00;;;1.50
33267;BMP180;19638;49.080;11.896;2023-02-13T02:57:32;98167.00;;;1.60
33267;BMP180;19638;49.080;11.896;2023-02-13T03:01:52;98167.00;;;1.70
33267;BMP180;19638;49.080;11.896;2023-02-13T03:06:17;98165.00;;;1.70
33267;BMP180;19638;49.080;11.896;2023-02-13T03:10:30;98171.00;;;1.70
33267;BMP180;19638;49.080;11.896;2023-02-13T03:14:51;98165.00;;;1.80
33267;BMP180;19638;49.080;11.896;2023-02-13T03:18:55;98171.00;;;1.80
33267;BMP180;19638;49.080;11.896;2023-02-13T03:23:24;98167.00;;;1.80
33267;BMP180;19638;49.080;11.896;2023-02-13T03:27:40;98165.00;;;1.80
33267;BMP180;19638;49.080;11.896;2023-02-13T03:32:09;98162.00;;;1.90
33267;BMP180;19638;49.080;11.896;2023-02-13T03:36:22;98169.00;;;2.00
33267;BMP180;19638;49.080;11.896;2023-02-13T03:40:50;98170.00;;;2.00
33267;BMP180;19638;49.080;11.896;2023-02-13T03:45:14;98165.00;;;2.00
33267;BMP180;19638;49.080;11.896;2023-02-13T03:49:40;98168.00;;;2.00
33267;BMP180;19638;49.080;11.896;2023-02-13T03:54:10;98173.00;;;2.00
33267;BMP180;19638;49.080;11.896;2023-02-13T03:58:23;98175.00;;;2.00
33267;BMP180;19638;49.080;11.896;2023-02-13T04:02:53;98179.00;;;2.10
33267;BMP180;19638;49.080;11.896;2023-02-13T04:07:03;98179.00;;;2.20
33267;BMP180;19638;49.080;11.896;2023-02-13T04:11:17;98167.00;;;2.20
33267;BMP180;19638;49.080;11.896;2023-02-13T04:15:28;98170.00;;;2.20
33267;BMP180;19638;49.080;11.896;2023-02-13T04:19:35;98171.00;;;2.20
33267;BMP180;19638;49.080;11.896;2023-02-13T04:23:40;98169.00;;;2.20
33267;BMP180;19638;49.080;11.896;2023-02-13T04:27:43;98173.00;;;2.30
33267;BMP180;19638;49.080;11.896;2023-02-13T04:31:47;98169.00;;;2.30
33267;BMP180;19638;49.080;11.896;2023-02-13T04:35:50;98163.00;;;2.30
33267;BMP180;19638;49.080;11.896;2023-02-13T04:39:53;98173.00;;;2.30
33267;BMP180;19638;49.080;11.896;2023-02-13T04:43:57;98168.00;;;2.30
33267;BMP180;19638;49.080;11.896;2023-02-13T04:48:03;98160.00;;;2.40
33267;BMP180;19638;49.080;11.896;2023-02-13T04:52:06;98165.00;;;2.40
33267;BMP180;19638;49.080;11.896;2023-02-13T04:56:11;98159.00;;;2.50
33267;BMP180;19638;49.080;11.896;2023-02-13T05:00:15;98160.00;;;2.50
33267;BMP180;19638;49.080;11.896;2023-02-13T05:04:30;98156.00;;;2.50
33267;BMP180;19638;49.080;11.896;2023-02-13T05:08:35;98169.00;;;2.50
33267;BMP180;19638;49.080;11.896;2023-02-13T05:12:38;98157.00;;;2.50
33267;BMP180;19638;49.080;11.896;2023-02-13T05:16:46;98156.00;;;2.50
33267;BMP180;19638;49.080;11.896;2023-02-13T05:20:51;98165.00;;;2.50
33267;BMP180;19638;49.080;11.896;2023-02-13T05:25:08;98163.00;;;2.50
33267;BMP180;19638;49.080;11.896;2023-02-13T05:29:14;98174.00;;;2.60
33267;BMP180;19638;49.080;11.896;2023-02-13T05:33:26;98179.00;;;2.50
33267;BMP180;19638;49.080;11.896;2023-02-13T05:37:31;98180.00;;;2.60
33267;BMP180;19638;49.080;11.896;2023-02-13T05:41:34;98181.00;;;2.60
33267;BMP180;19638;49.080;11.896;2023-02-13T05:45:37;98177.00;;;2.60
33267;BMP180;19638;49.080;11.896;2023-02-13T05:49:43;98185.00;;;2.60
33267;BMP180;19638;49.080;11.896;2023-02-13T05:53:51;98194.00;;;2.60
33267;BMP180;19638;49.080;11.896;2023-02-13T05:57:57;98191.00;;;2.70
33267;BMP180;19638;49.080;11.896;2023-02-13T06:02:00;98195.00;;;2.70
33267;BMP180;19638;49.080;11.896;2023-02-13T06:06:03;98195.00;;;2.70
33267;BMP180;19638;49.080;11.896;2023-02-13T06:10:14;98198.00;;;2.70
33267;BMP180;19638;49.080;11.896;2023-02-13T06:14:20;98203.00;;;2.80
33267;BMP180;19638;49.080;11.896;2023-02-13T06:18:28;98209.00;;;2.80
33267;BMP180;19638;49.080;11.896;2023-02-13T06:22:32;98215.00;;;2.80
33267;BMP180;19638;49.080;11.896;2023-02-13T06:26:36;98222.00;;;2.80
33267;BMP180;19638;49.080;11.896;2023-02-13T06:30:39;98223.00;;;2.90
33267;BMP180;19638;49.080;11.896;2023-02-13T06:34:42;98224.00;;;2.90
33267;BMP180;19638;49.080;11.896;2023-02-13T06:38:50;98230.00;;;3.00
33267;BMP180;19638;49.080;11.896;2023-02-13T06:42:56;98227.00;;;3.00
33267;BMP180;19638;49.080;11.896;2023-02-13T06:46:59;98238.00;;;3.10
33267;BMP180;19638;49.080;11.896;2023-02-13T06:51:03;98236.00;;;3.10
33267;BMP180;19638;49.080;11.896;2023-02-13T06:55:08;98241.00;;;3.10
33267;BMP180;19638;49.080;11.896;2023-02-13T06:59:12;98241.00;;;3.20
33267;BMP180;19638;49.080;11.896;2023-02-13T07:03:15;98249.00;;;3.20
33267;BMP180;19638;49.080;11.896;2023-02-13T07:07:21;98244.00;;;3.20
33267;BMP180;19638;49.080;11.896;2023-02-13T07:11:25;98242.00;;;3.20
33267;BMP180;19638;49.080;11.896;2023-02-13T07:15:34;98243.00;;;3.30
33267;BMP180;19638;49.080;11.896;2023-02-13T07:19:39;98245.00;;;3.30
33267;BMP180;19638;49.080;11.896;2023-02-13T07:23:44;98256.00;;;3.40
33267;BMP180;19638;49.080;11.896;2023-02-13T07:27:47;98255.00;;;3.50
33267;BMP180;19638;49.080;11.896;2023-02-13T07:31:51;98260.00;;;3.50
33267;BMP180;19638;49.080;11.896;2023-02-13T07:35:57;98261.00;;;3.50
33267;BMP180;19638;49.080;11.896;2023-02-13T07:40:00;98259.00;;;3.60
33267;BMP180;19638;49.080;11.896;2023-02-13T07:44:06;98258.00;;;3.70
33267;BMP180;19638;49.080;11.896;2023-02-13T07:48:11;98257.00;;;3.80
33267;BMP180;19638;49.080;11.896;2023-02-13T07:52:14;98257.00;;;3.90
33267;BMP180;19638;49.080;11.896;2023-02-13T07:56:17;98254.00;;;3.90
33267;BMP180;19638;49.080;11.896;2023-02-13T08:00:21;98254.00;;;4.00
33267;BMP180;19638;49.080;11.896;2023-02-13T08:04:26;98260.00;;;4.10
33267;BMP180;19638;49.080;11.896;2023-02-13T08:08:30;98250.00;;;4.10
33267;BMP180;19638;49.080;11.896;2023-02-13T08:12:34;98256.00;;;4.20
33267;BMP180;19638;49.080;11.896;2023-02-13T08:16:38;98246.00;;;4.20
33267;BMP180;19638;49.080;11.896;2023-02-13T08:20:45;98251.00;;;4.40
33267;BMP180;19638;49.080;11.896;2023-02-13T08:24:49;98257.00;;;4.50
33267;BMP180;19638;49.080;11.896;2023-02-13T08:28:55;98260.00;;;4.50
33267;BMP180;19638;49.080;11.896;2023-02-13T08:33:01;98266.00;;;4.60
33267;BMP180;19638;49.080;11.896;2023-02-13T08:37:05;98272.00;;;4.80
33267;BMP180;19638;49.080;11.896;2023-02-13T08:41:09;98273.00;;;4.90
33267;BMP180;19638;49.080;11.896;2023-02-13T08:45:14;98269.00;;;5.00
33267;BMP180;19638;49.080;11.896;2023-02-13T08:49:17;98270.00;;;5.10
33267;BMP180;19638;49.080;11.896;2023-02-13T08:53:24;98280.00;;;5.10
33267;BMP180;19638;49.080;11.896;2023-02-13T08:57:28;98289.00;;;5.20
33267;BMP180;19638;49.080;11.896;2023-02-13T09:01:31;98283.00;;;5.40
33267;BMP180;19638;49.080;11.896;2023-02-13T09:05:39;98279.00;;;5.50
33267;BMP180;19638;49.080;11.896;2023-02-13T09:09:44;98286.00;;;5.60
33267;BMP180;19638;49.080;11.896;2023-02-13T09:13:47;98283.00;;;5.70
33267;BMP180;19638;49.080;11.896;2023-02-13T09:17:51;98286.00;;;5.70
33267;BMP180;19638;49.080;11.896;2023-02-13T09:21:54;98281.00;;;5.90
33267;BMP180;19638;49.080;11.896;2023-02-13T09:26:04;98279.00;;;6.00
33267;BMP180;19638;49.080;11.896;2023-02-13T09:30:12;98281.00;;;6.10
33267;BMP180;19638;49.080;11.896;2023-02-13T09:34:23;98275.00;;;6.20
33267;BMP180;19638;49.080;11.896;2023-02-13T09:38:27;98290.00;;;6.30
33267;BMP180;19638;49.080;11.896;2023-02-13T09:42:33;98288.00;;;6.40
33267;BMP180;19638;49.080;11.896;2023-02-13T09:46:43;98288.00;;;6.60
33267;BMP180;19638;49.080;11.896;2023-02-13T09:50:46;98280.00;;;6.80
33267;BMP180;19638;49.080;11.896;2023-02-13T09:54:57;98283.00;;;7.00
33267;BMP180;19638;49.080;11.896;2023-02-13T09:59:04;98288.00;;;7.20
33267;BMP180;19638;49.080;11.896;2023-02-13T10:03:24;98283.00;;;7.20
33267;BMP180;19638;49.080;11.896;2023-02-13T10:07:35;98289.00;;;7.30
33267;BMP180;19638;49.080;11.896;2023-02-13T10:12:03;98275.00;;;7.50
33267;BMP180;19638;49.080;11.896;2023-02-13T10:16:15;98288.00;;;7.70
33267;BMP180;19638;49.080;11.896;2023-02-13T10:20:28;98286.00;;;7.80
33267;BMP180;19638;49.080;11.896;2023-02-13T10:24:39;98295.00;;;7.80
33267;BMP180;19638;49.080;11.896;2023-02-13T10:28:46;98288.00;;;7.90
33267;BMP180;19638;49.080;11.896;2023-02-13T10:33:18;98292.00;;;8.10
33267;BMP180;19638;49.080;11.896;2023-02-13T10:37:22;98291.00;;;8.20
33267;BMP180;19638;49.080;11.896;2023-02-13T10:41:37;98289.00;;;8.30
33267;BMP180;19638;49.080;11.896;2023-02-13T10:45:55;98289.00;;;8.50
33267;BMP180;19638;49.080;11.896;2023-02-13T10:50:16;98289.00;;;8.60
33267;BMP180;19638;49.080;11.896;2023-02-13T10:54:33;98293.00;;;8.70
33267;BMP180;19638;49.080;11.896;2023-02-13T10:58:56;98288.00;;;8.90
33267;BMP180;19638;49.080;11.896;2023-02-13T11:03:02;98286.00;;;9.10
33267;BMP180;19638;49.080;11.896;2023-02-13T11:07:13;98283.00;;;9.30
33267;BMP180;19638;49.080;11.896;2023-02-13T11:11:30;98279.00;;;9.30
33267;BMP180;19638;49.080;11.896;2023-02-13T11:15:39;98272.00;;;9.40
33267;BMP180;19638;49.080;11.896;2023-02-13T11:19:48;98278.00;;;9.50
33267;BMP180;19638;49.080;11.896;2023-02-13T11:23:56;98285.00;;;9.60
33267;BMP180;19638;49.080;11.896;2023-02-13T11:28:07;98280.00;;;9.80
33267;BMP180;19638;49.080;11.896;2023-02-13T11:32:19;98283.00;;;9.80
33267;BMP180;19638;49.080;11.896;2023-02-13T11:36:28;98282.00;;;9.90
33267;BMP180;19638;49.080;11.896;2023-02-13T11:40:33;98290.00;;;10.00
33267;BMP180;19638;49.080;11.896;2023-02-13T11:44:36;98283.00;;;10.10
33267;BMP180;19638;49.080;11.896;2023-02-13T11:48:42;98290.00;;;10.10
33267;BMP180;19638;49.080;11.896;2023-02-13T11:52:53;98287.00;;;10.20
33267;BMP180;19638;49.080;11.896;2023-02-13T11:57:01;98284.00;;;10.20
33267;BMP180;19638;49.080;11.896;2023-02-13T12:01:10;98283.00;;;10.30
33267;BMP180;19638;49.080;11.896;2023-02-13T12:05:24;98280.00;;;10.40
33267;BMP180;19638;49.080;11.896;2023-02-13T12:09:28;98280.00;;;10.60
33267;BMP180;19638;49.080;11.896;2023-02-13T12:13:36;98269.00;;;10.60
33267;BMP180;19638;49.080;11.896;2023-02-13T12:17:42;98272.00;;;10.80
33267;BMP180;19638;49.080;11.896;2023-02-13T12:22:05;98273.00;;;10.90
33267;BMP180;19638;49.080;11.896;2023-02-13T12:26:22;98269.00;;;11.00
33267;BMP180;19638;49.080;11.896;2023-02-13T12:30:56;98257.00;;;11.10
33267;BMP180;19638;49.080;11.896;2023-02-13T12:35:40;98246.00;;;11.20
33267;BMP180;19638;49.080;11.896;2023-02-13T12:39:57;98243.00;;;11.20
33267;BMP180;19638;49.080;11.896;2023-02-13T12:44:38;98242.00;;;11.10
33267;BMP180;19638;49.080;11.896;2023-02-13T12:48:51;98248.00;;;11.20
33267;BMP180;19638;49.080;11.896;2023-02-13T12:53:26;98240.00;;;11.20
33267;BMP180;19638;49.080;11.896;2023-02-13T12:57:45;98239.00;;;11.20
33267;BMP180;19638;49.080;11.896;2023-02-13T13:06:46;98237.00;;;11.20
33267;BMP180;19638;49.080;11.896;2023-02-13T13:11:00;98226.00;;;11.20
33267;BMP180;19638;49.080;11.896;2023-02-13T13:15:14;98225.00;;;11.10
33267;BMP180;19638;49.080;11.896;2023-02-13T13:19:29;98224.00;;;11.20
33267;BMP180;19638;49.080;11.896;2023-02-13T13:23:39;98225.00;;;11.20
33267;BMP180;19638;49.080;11.896;2023-02-13T13:27:47;98230.00;;;11.10
33267;BMP180;19638;49.080;11.896;2023-02-13T13:31:57;98220.00;;;11.10
33267;BMP180;19638;49.080;11.896;2023-02-13T13:36:08;98221.00;;;11.10
33267;BMP180;19638;49.080;11.896;2023-02-13T13:40:27;98220.00;;;11.00
33267;BMP180;19638;49.080;11.896;2023-02-13T13:49:21;98223.00;;;10.90
33267;BMP180;19638;49.080;11.896;2023-02-13T13:53:28;98220.00;;;10.80
33267;BMP180;19638;49.080;11.896;2023-02-13T14:07:20;98216.00;;;10.80
33267;BMP180;19638;49.080;11.896;2023-02-13T14:11:38;98233.00;;;10.70
33267;BMP180;19638;49.080;11.896;2023-02-13T14:15:51;98226.00;;;10.40
33267;BMP180;19638;49.080;11.896;2023-02-13T14:19:57;98222.00;;;10.20
33267;BMP180;19638;49.080;11.896;2023-02-13T14:24:11;98214.00;;;10.20
33267;BMP180;19638;49.080;11.896;2023-02-13T14:28:21;98225.00;;;10.10
33267;BMP180;19638;49.080;11.896;2023-02-13T14:32:28;98226.00;;;9.90
33267;BMP180;19638;49.080;11.896;2023-02-13T14:36:34;98218.00;;;9.90
33267;BMP180;19638;49.080;11.896;2023-02-13T14:40:45;98218.00;;;9.90
33267;BMP180;19638;49.080;11.896;2023-02-13T14:44:50;98212.00;;;9.90
33267;BMP180;19638;49.080;11.896;2023-02-13T14:49:00;98218.00;;;9.80
33267;BMP180;19638;49.080;11.896;2023-02-13T14:53:10;98217.00;;;9.70
33267;BMP180;19638;49.080;11.896;2023-02-13T14:57:22;98206.00;;;9.80
33267;BMP180;19638;49.080;11.896;2023-02-13T15:01:29;98204.00;;;9.70
33267;BMP180;19638;49.080;11.896;2023-02-13T15:05:36;98204.00;;;9.60
33267;BMP180;19638;49.080;11.896;2023-02-13T15:09:45;98204.00;;;9.50
33267;BMP180;19638;49.080;11.896;2023-02-13T15:13:51;98195.00;;;9.40
33267;BMP180;19638;49.080;11.896;2023-02-13T15:17:58;98211.00;;;9.50
33267;BMP180;19638;49.080;11.896;2023-02-13T15:22:06;98201.00;;;9.40
33267;BMP180;19638;49.080;11.896;2023-02-13T15:26:20;98197.00;;;9.30
33267;BMP180;19638;49.080;11.896;2023-02-13T15:30:27;98198.00;;;9.10
33267;BMP180;19638;49.080;11.896;2023-02-13T15:34:31;98194.00;;;9.00
33267;BMP180;19638;49.080;11.896;2023-02-13T15:38:38;98205.00;;;8.90
33267;BMP180;19638;49.080;11.896;2023-02-13T15:42:44;98207.00;;;8.80
33267;BMP180;19638;49.080;11.896;2023-02-13T15:46:49;98203.00;;;8.80
33267;BMP180;19638;49.080;11.896;2023-02-13T15:50:56;98207.00;;;8.70
33267;BMP180;19638;49.080;11.896;2023-02-13T15:55:00;98199.00;;;8.60
33267;BMP180;19638;49.080;11.896;2023-02-13T15:59:03;98200.00;;;8.50
33267;BMP180;19638;49.080;11.896;2023-02-13T16:03:14;98197.00;;;8.40
33267;BMP180;19638;49.080;11.896;2023-02-13T16:07:23;98209.00;;;8.30
33267;BMP180;19638;49.080;11.896;2023-02-13T16:11:31;98201.00;;;8.10
33267;BMP180;19638;49.080;11.896;2023-02-13T16:15:41;98201.00;;;8.00
33267;BMP180;19638;49.080;11.896;2023-02-13T16:19:51;98191.00;;;7.90
33267;BMP180;19638;49.080;11.896;2023-02-13T16:24:01;98185.00;;;7.90
33267;BMP180;19638;49.080;11.896;2023-02-13T16:28:16;98185.00;;;7.80
33267;BMP180;19638;49.080;11.896;2023-02-13T16:32:26;98188.00;;;7.80
33267;BMP180;19638;49.080;11.896;2023-02-13T16:36:33;98190.00;;;7.80
33267;BMP180;19638;49.080;11.896;2023-02-13T16:40:38;98192.00;;;7.70
33267;BMP180;19638;49.080;11.896;2023-02-13T16:44:41;98204.00;;;7.70
33267;BMP180;19638;49.080;11.896;2023-02-13T16:49:12;98198.00;;;7.60
33267;BMP180;19638;49.080;11.896;2023-02-13T16:53:17;98203.00;;;7.50
33267;BMP180;19638;49.080;11.896;2023-02-13T16:57:26;98212.00;;;7.50
33267;BMP180;19638;49.080;11.896;2023-02-13T17:01:32;98205.00;;;7.50
33267;BMP180;19638;49.080;11.896;2023-02-13T17:05:38;98214.00;;;7.40
33267;BMP180;19638;49.080;11.896;2023-02-13T17:09:51;98208.00;;;7.30
33267;BMP180;19638;49.080;11.896;2023-02-13T17:13:54;98211.00;;;7.30
33267;BMP180;19638;49.080;11.896;2023-02-13T17:17:57;98211.00;;;7.30
33267;BMP180;19638;49.080;11.896;2023-02-13T17:22:01;98218.00;;;7.20
33267;BMP180;19638;49.080;11.896;2023-02-13T17:26:07;98230.00;;;7.20
33267;BMP180;19638;49.080;11.896;2023-02-13T17:30:12;98215.00;;;7.10
33267;BMP180;19638;49.080;11.896;2023-02-13T17:34:16;98227.00;;;7.00
33267;BMP180;19638;49.080;11.896;2023-02-13T17:38:20;98218.00;;;7.00
33267;BMP180;19638;49.080;11.896;2023-02-13T17:42:26;98232.00;;;6.90
33267;BMP180;19638;49.080;11.896;2023-02-13T17:46:31;98225.00;;;6.90
33267;BMP180;19638;49.080;11.896;2023-02-13T17:50:35;98226.00;;;6.90
33267;BMP180;19638;49.080;11.896;2023-02-13T17:54:39;98225.00;;;6.90
33267;BMP180;19638;49.080;11.896;2023-02-13T17:58:44;98221.00;;;6.90
33267;BMP180;19638;49.080;11.896;2023-02-13T18:02:49;98208.00;;;6.90
33267;BMP180;19638;49.080;11.896;2023-02-13T18:06:55;98217.00;;;6.90
33267;BMP180;19638;49.080;11.896;2023-02-13T18:11:01;98212.00;;;6.90
33267;BMP180;19638;49.080;11.896;2023-02-13T18:15:12;98208.00;;;6.90
33267;BMP180;19638;49.080;11.896;2023-02-13T18:19:18;98209.00;;;6.90
33267;BMP180;19638;49.080;11.896;2023-02-13T18:23:21;98203.00;;;6.80
33267;BMP180;19638;49.080;11.896;2023-02-13T18:27:27;98210.00;;;6.80
33267;BMP180;19638;49.080;11.896;2023-02-13T18:31:32;98199.00;;;6.70
33267;BMP180;19638;49.080;11.896;2023-02-13T18:35:35;98194.00;;;6.60
33267;BMP180;19638;49.080;11.896;2023-02-13T18:39:38;98192.00;;;6.60
33267;BMP180;19638;49.080;11.896;2023-02-13T18:43:44;98197.00;;;6.60
33267;BMP180;19638;49.080;11.896;2023-02-13T18:47:49;98194.00;;;6.60
33267;BMP180;19638;49.080;11.896;2023-02-13T18:51:55;98213.00;;;6.60
33267;BMP180;19638;49.080;11.896;2023-02-13T18:55:59;98209.00;;;6.60
33267;BMP180;19638;49.080;11.896;2023-02-13T19:00:03;98213.00;;;6.60
33267;BMP180;19638;49.080;11.896;2023-02-13T19:04:10;98203.00;;;6.60
33267;BMP180;19638;49.080;11.896;2023-02-13T19:08:19;98215.00;;;6.50
33267;BMP180;19638;49.080;11.896;2023-02-13T19:12:23;98212.00;;;6.40
33267;BMP180;19638;49.080;11.896;2023-02-13T19:16:28;98218.00;;;6.40
33267;BMP180;19638;49.080;11.896;2023-02-13T19:20:33;98214.00;;;6.40
33267;BMP180;19638;49.080;11.896;2023-02-13T19:24:39;98215.00;;;6.40
33267;BMP180;19638;49.080;11.896;2023-02-13T19:28:42;98207.00;;;6.30
33267;BMP180;19638;49.080;11.896;2023-02-13T19:32:46;98211.00;;;6.20
33267;BMP180;19638;49.080;11.896;2023-02-13T19:36:53;98194.00;;;6.10
33267;BMP180;19638;49.080;11.896;2023-02-13T19:41:02;98208.00;;;6.00
33267;BMP180;19638;49.080;11.896;2023-02-13T19:45:06;98205.00;;;5.90
33267;BMP180;19638;49.080;11.896;2023-02-13T19:49:10;98204.00;;;5.90
33267;BMP180;19638;49.080;11.896;2023-02-13T19:53:15;98200.00;;;5.90
33267;BMP180;19638;49.080;11.896;2023-02-13T19:57:18;98204.00;;;5.80
33267;BMP180;19638;49.080;11.896;2023-02-13T20:01:24;98199.00;;;5.80
33267;BMP180;19638;49.080;11.896;2023-02-13T20:05:28;98208.00;;;5.80
33267;BMP180;19638;49.080;11.896;2023-02-13T20:09:35;98202.00;;;5.80
33267;BMP180;19638;49.080;11.896;2023-02-13T20:13:40;98207.00;;;5.80
33267;BMP180;19638;49.080;11.896;2023-02-13T20:17:46;98205.00;;;5.80
33267;BMP180;19638;49.080;11.896;2023-02-13T20:21:53;98203.00;;;5.80
33267;BMP180;19638;49.080;11.896;2023-02-13T20:26:05;98201.00;;;5.80
33267;BMP180;19638;49.080;11.896;2023-02-13T20:30:15;98210.00;;;5.90
33267;BMP180;19638;49.080;11.896;2023-02-13T20:34:21;98202.00;;;5.80
33267;BMP180;19638;49.080;11.896;2023-02-13T20:38:25;98195.00;;;5.90
33267;BMP180;19638;49.080;11.896;2023-02-13T20:42:32;98196.00;;;5.80
33267;BMP180;19638;49.080;11.896;2023-02-13T20:46:38;98180.00;;;5.90
33267;BMP180;19638;49.080;11.896;2023-02-13T20:50:43;98169.00;;;5.80
33267;BMP180;19638;49.080;11.896;2023-02-13T20:54:46;98178.00;;;5.70
33267;BMP180;19638;49.080;11.896;2023-02-13T20:58:57;98168.00;;;5.70
33267;BMP180;19638;49.080;11.896;2023-02-13T21:03:00;98164.00;;;5.80
33267;BMP180;19638;49.080;11.896;2023-02-13T21:07:03;98166.00;;;5.70
33267;BMP180;19638;49.080;11.896;2023-02-13T21:11:13;98164.00;;;5.60
33267;BMP180;19638;49.080;11.896;2023-02-13T21:15:18;98168.00;;;5.60
33267;BMP180;19638;49.080;11.896;2023-02-13T21:19:24;98163.00;;;5.60
33267;BMP180;19638;49.080;11.896;2023-02-13T21:23:27;98165.00;;;5.60
33267;BMP180;19638;49.080;11.896;2023-02-13T21:27:30;98163.00;;;5.50
33267;BMP180;19638;49.080;11.896;2023-02-13T21:31:36;98159.00;;;5.50
33267;BMP180;19638;49.080;11.896;2023-02-13T21:35:41;98160.00;;;5.50
33267;BMP180;19638;49.080;11.896;2023-02-13T21:39:44;98169.00;;;5.50
33267;BMP180;19638;49.080;11.896;2023-02-13T21:43:51;98166.00;;;5.40
33267;BMP180;19638;49.080;11.896;2023-02-13T21:47:59;98168.00;;;5.40
33267;BMP180;19638;49.080;11.896;2023-02-13T21:52:03;98160.00;;;5.40
33267;BMP180;19638;49.080;11.896;2023-02-13T21:56:08;98161.00;;;5.40
33267;BMP180;19638;49.080;11.896;2023-02-13T22:00:17;98168.00;;;5.40
33267;BMP180;19638;49.080;11.896;2023-02-13T22:04:25;98167.00;;;5.40
33267;BMP180;19638;49.080;11.896;2023-02-13T22:08:28;98161.00;;;5.40
33267;BMP180;19638;49.080;11.896;2023-02-13T22:12:31;98162.00;;;5.40
33267;BMP180;19638;49.080;11.896;2023-02-13T22:16:36;98161.00;;;5.40
33267;BMP180;19638;49.080;11.896;2023-02-13T22:20:46;98162.00;;;5.30
33267;BMP180;19638;49.080;11.896;2023-02-13T22:24:49;98165.00;;;5.30
33267;BMP180;19638;49.080;11.896;2023-02-13T22:28:53;98165.00;;;5.30
33267;BMP180;19638;49.080;11.896;2023-02-13T22:32:56;98158.00;;;5.20
33267;BMP180;19638;49.080;11.896;2023-02-13T22:37:03;98149.00;;;5.20
33267;BMP180;19638;49.080;11.896;2023-02-13T22:41:11;98152.00;;;5.20
33267;BMP180;19638;49.080;11.896;2023-02-13T22:45:14;98154.00;;;5.20
33267;BMP180;19638;49.080;11.896;2023-02-13T22:49:18;98147.00;;;5.10
33267;BMP180;19638;49.080;11.896;2023-02-13T22:53:27;98153.00;;;5.00
33267;BMP180;19638;49.080;11.896;2023-02-13T22:57:32;98141.00;;;5.10
33267;BMP180;19638;49.080;11.896;2023-02-13T23:01:38;98158.00;;;5.10
33267;BMP180;19638;49.080;11.896;2023-02-13T23:05:43;98142.00;;;5.10
33267;BMP180;19638;49.080;11.896;2023-02-13T23:09:49;98145.00;;;5.10
33267;BMP180;19638;49.080;11.896;2023-02-13T23:13:52;98150.00;;;5.10
33267;BMP180;19638;49.080;11.896;2023-02-13T23:17:55;98151.00;;;5.10
33267;BMP180;19638;49.080;11.896;2023-02-13T23:22:20;98157.00;;;5.10
33267;BMP180;19638;49.080;11.896;2023-02-13T23:26:27;98156.00;;;5.10
33267;BMP180;19638;49.080;11.896;2023-02-13T23:30:34;98155.00;;;5.00
33267;BMP180;19638;49.080;11.896;2023-02-13T23:34:44;98166.00;;;5.00
33267;BMP180;19638;49.080;11.896;2023-02-13T23:38:50;98159.00;;;4.90
33267;BMP180;19638;49.080;11.896;2023-02-13T23:42:57;98161.00;;;4.90
33267;BMP180;19638;49.080;11.896;2023-02-13T23:47:03;98155.00;;;4.80
33267;BMP180;19638;49.080;11.896;2023-02-13T23:51:10;98153.00;;;4.80
33267;BMP180;19638;49.080;11.896;2023-02-13T23:55:14;98148.00;;;4.70
33267;BMP180;19638;49.080;11.896;2023-02-13T23:59:21;98142.00;;;4.70
